createdAt,value
2023-02-03T00:00:25.269Z,99100.04
2023-02-03T00:06:05.183Z,99100.20
2023-02-03T00:11:27.681Z,99097.11
2023-02-03T00:16:49.580Z,99105.70
2023-02-03T00:22:11.742Z,99104.25
2023-02-03T00:27:33.693Z,99110.11
2023-02-03T00:32:55.702Z,99117.43
2023-02-03T00:38:17.227Z,99126.37
2023-02-03T00:43:39.118Z,99127.88
2023-02-03T00:49:00.914Z,99122.58
2023-02-03T00:54:23.818Z,99130.41
2023-02-03T00:59:45.721Z,99121.11
2023-02-03T01:05:08.399Z,99119.77
2023-02-03T01:10:30.333Z,99115.40
2023-02-03T01:15:52.106Z,99107.41
2023-02-03T01:21:17.990Z,99107.88
2023-02-03T01:26:39.999Z,99108.27
2023-02-03T01:32:02.332Z,99106.07
2023-02-03T01:37:24.213Z,99105.73
2023-02-03T01:42:46.269Z,99104.17
2023-02-03T01:48:09.236Z,99104.35
2023-02-03T01:53:31.969Z,99095.03
2023-02-03T01:58:54.692Z,99096.33
2023-02-03T02:04:16.532Z,99089.72
2023-02-03T02:09:38.567Z,99091.06
2023-02-03T02:15:00.502Z,99085.46
2023-02-03T02:20:30.479Z,99081.13
2023-02-03T02:26:14.338Z,99070.64
2023-02-03T02:32:00.418Z,99067.32
2023-02-03T02:37:37.083Z,99062.90
2023-02-03T02:43:13.573Z,99042.46
2023-02-03T02:48:41.167Z,99031.40
2023-02-03T02:54:06.572Z,99026.39
2023-02-03T02:59:28.270Z,99029.45
2023-02-03T03:04:51.248Z,99032.33
2023-02-03T03:10:16.868Z,99045.25
2023-02-03T03:15:40.149Z,99053.29
2023-02-03T03:21:06.602Z,99048.44
2023-02-03T03:26:50.751Z,99045.90
2023-02-03T03:32:12.537Z,99036.84
2023-02-03T03:37:37.219Z,99029.65
2023-02-03T03:43:11.521Z,99007.38
2023-02-03T03:48:48.014Z,98989.58
2023-02-03T03:54:12.682Z,98983.98
2023-02-03T03:59:38.107Z,98981.57
2023-02-03T04:05:00.568Z,98984.27
2023-02-03T04:10:36.950Z,98984.20
2023-02-03T04:15:58.796Z,98971.58
2023-02-03T04:21:22.180Z,98972.41
2023-02-03T04:26:43.861Z,98971.05
2023-02-03T04:32:05.572Z,98958.38
2023-02-03T04:37:27.970Z,98952.71
2023-02-03T04:42:49.898Z,98945.17
2023-02-03T04:48:11.562Z,98938.23
2023-02-03T04:53:36.506Z,98930.10
2023-02-03T04:58:58.310Z,98929.59
2023-02-03T05:04:20.291Z,98917.02
2023-02-03T05:09:42.394Z,98901.35
2023-02-03T05:15:04.847Z,98886.77
2023-02-03T05:20:27.017Z,98874.27
2023-02-03T05:25:48.791Z,98863.25
2023-02-03T05:31:10.781Z,98858.63
2023-02-03T05:36:32.615Z,98855.05
2023-02-03T05:41:56.575Z,98846.83
2023-02-03T05:47:19.071Z,98840.59
2023-02-03T05:52:40.772Z,98835.91
2023-02-03T05:58:02.671Z,98828.08
2023-02-03T06:03:24.845Z,98823.16
2023-02-03T06:08:46.775Z,98822.48
2023-02-03T06:14:08.637Z,98809.05
2023-02-03T06:19:30.447Z,98798.08
2023-02-03T06:24:52.284Z,98791.77
2023-02-03T06:30:16.369Z,98794.80
2023-02-03T06:35:38.325Z,98782.73
2023-02-03T06:41:00.202Z,98772.54
2023-02-03T06:46:22.315Z,98769.27
2023-02-03T06:51:45.328Z,98759.58
2023-02-03T06:57:07.071Z,98744.80
2023-02-03T07:02:29.251Z,98744.87
2023-02-03T07:07:51.481Z,98742.69
2023-02-03T07:13:13.124Z,98726.79
2023-02-03T07:18:47.015Z,98712.67
2023-02-03T07:24:10.761Z,98701.52
2023-02-03T07:29:32.625Z,98698.73
2023-02-03T07:34:54.954Z,98700.13
2023-02-03T07:40:17.067Z,98695.52
2023-02-03T07:45:39.175Z,98690.71
2023-02-03T07:51:01.209Z,98679.95
2023-02-03T07:56:23.235Z,98665.27
2023-02-03T08:01:45.135Z,98654.36
2023-02-03T08:07:07.252Z,98646.15
2023-02-03T08:12:29.325Z,98642.42
2023-02-03T08:17:51.563Z,98631.40
2023-02-03T08:23:13.279Z,98623.59
2023-02-03T08:28:35.316Z,98621.40
2023-02-03T08:39:34.625Z,98598.91
2023-02-03T08:44:56.453Z,98590.61
2023-02-03T08:50:20.016Z,98581.55
2023-02-03T08:55:43.225Z,98573.43
2023-02-03T09:01:13.140Z,98574.06
2023-02-03T09:06:36.292Z,98559.17
2023-02-03T09:12:02.493Z,98545.01
2023-02-03T09:17:24.493Z,98525.45
2023-02-03T09:22:46.216Z,98508.16
2023-02-03T09:28:08.222Z,98491.20
2023-02-03T09:33:30.680Z,98474.63
2023-02-03T09:38:52.409Z,98456.70
2023-02-03T09:44:35.660Z,98440.13
2023-02-03T09:50:00.294Z,98423.17
2023-02-03T09:55:35.531Z,98400.96
2023-02-03T10:00:59.108Z,98376.96
2023-02-03T10:06:33.327Z,98356.14
2023-02-03T10:12:10.746Z,98338.13
2023-02-03T10:17:34.268Z,98324.52
2023-02-03T10:23:04.158Z,98315.83
2023-02-03T10:28:31.510Z,98306.23
2023-02-03T10:34:11.949Z,98283.00
2023-02-03T10:39:45.518Z,98259.92
2023-02-03T10:45:11.964Z,98247.41
2023-02-03T10:50:34.697Z,98228.33
2023-02-03T10:56:10.276Z,98209.70
2023-02-03T11:01:47.135Z,98186.97
2023-02-03T11:07:24.604Z,98169.80
2023-02-03T11:12:46.266Z,98154.73
2023-02-03T11:18:25.877Z,98135.08
2023-02-03T11:23:51.024Z,98113.37
2023-02-03T11:29:19.250Z,98094.16
2023-02-03T11:34:47.300Z,98069.98
2023-02-03T11:40:11.138Z,98058.73
2023-02-03T11:45:39.481Z,98039.39
2023-02-03T11:51:12.282Z,98015.04
2023-02-03T11:56:49.445Z,97998.29
2023-02-03T12:02:39.906Z,97984.32
2023-02-03T12:08:19.318Z,97970.55
2023-02-03T12:14:00.400Z,97948.52
2023-02-03T12:19:41.961Z,97929.97
2023-02-03T12:25:10.210Z,97912.35
2023-02-03T12:30:37.117Z,97899.59
2023-02-03T12:36:07.847Z,97880.02
2023-02-03T12:41:36.264Z,97861.54
2023-02-03T12:47:26.599Z,97848.58
2023-02-03T12:52:55.760Z,97842.69
2023-02-03T12:58:24.553Z,97830.27
2023-02-03T13:03:50.760Z,97828.13
2023-02-03T13:09:32.264Z,97808.98
2023-02-03T13:15:20.271Z,97783.44
2023-02-03T13:20:41.903Z,97763.43
2023-02-03T13:26:12.971Z,97745.99
2023-02-03T13:31:47.457Z,97727.65
2023-02-03T13:37:37.581Z,97719.21
2023-02-03T13:43:05.815Z,97703.20
2023-02-03T13:48:30.118Z,97693.38
2023-02-03T13:53:59.872Z,97682.52
2023-02-03T13:59:49.875Z,97676.11
2023-02-03T14:05:39.357Z,97656.52
2023-02-03T14:11:35.711Z,97646.71
2023-02-03T14:16:57.989Z,97633.61
2023-02-03T14:22:19.946Z,97607.51
2023-02-03T14:27:41.915Z,97599.84
2023-02-03T14:33:04.434Z,97587.85
2023-02-03T14:38:31.674Z,97569.08
2023-02-03T14:44:04.392Z,97568.60
2023-02-03T14:49:43.340Z,97591.79
2023-02-03T14:55:25.219Z,97612.88
2023-02-03T15:00:48.868Z,97605.27
2023-02-03T15:06:37.930Z,97604.19
2023-02-03T15:11:59.881Z,97606.48
2023-02-03T15:17:27.991Z,97611.17
2023-02-03T15:22:50.101Z,97614.77
2023-02-03T15:28:20.501Z,97594.05
2023-02-03T15:33:44.498Z,97586.20
2023-02-03T15:39:21.481Z,97612.26
2023-02-03T15:45:00.622Z,97611.77
2023-02-03T15:50:28.553Z,97608.60
2023-02-03T15:55:54.502Z,97612.98
2023-02-03T16:01:20.021Z,97625.23
2023-02-03T16:06:46.449Z,97629.36
2023-02-03T16:12:16.120Z,97637.95
2023-02-03T16:17:40.343Z,97640.58
2023-02-03T16:23:03.535Z,97648.09
2023-02-03T16:28:44.822Z,97638.20
2023-02-03T16:34:37.338Z,97632.54
2023-02-03T16:40:18.021Z,97634.71
2023-02-03T16:45:58.811Z,97635.48
2023-02-03T16:51:21.833Z,97641.01
2023-02-03T16:56:43.493Z,97643.55
2023-02-03T17:02:05.445Z,97658.07
2023-02-03T17:07:27.725Z,97661.32
2023-02-03T17:12:52.643Z,97660.96
2023-02-03T17:18:15.637Z,97676.08
2023-02-03T17:23:37.763Z,97677.41
2023-02-03T17:29:03.509Z,97679.73
2023-02-03T17:34:25.417Z,97688.70
2023-02-03T17:56:54.922Z,97705.76
2023-02-03T18:02:16.859Z,97717.27
2023-02-03T18:07:39.167Z,97726.61
2023-02-03T18:13:01.113Z,97728.31
2023-02-03T18:18:23.384Z,97735.27
2023-02-03T18:23:45.702Z,97745.43
2023-02-03T18:29:07.474Z,97753.66
2023-02-03T18:34:30.701Z,97764.34
2023-02-03T18:39:52.338Z,97764.10
2023-02-03T18:45:15.048Z,97769.41
2023-02-03T18:50:37.024Z,97768.48
2023-02-03T18:55:59.183Z,97776.02
2023-02-03T19:01:26.905Z,97786.55
2023-02-03T19:06:49.387Z,97787.83
2023-02-03T19:12:11.984Z,97784.29
2023-02-03T19:17:34.001Z,97782.10
2023-02-03T19:22:56.844Z,97786.17
2023-02-03T19:28:29.936Z,97775.77
2023-02-03T19:33:52.747Z,97780.02
2023-02-03T19:39:15.761Z,97774.92
2023-02-03T19:44:37.796Z,97781.89
2023-02-03T19:49:59.413Z,97790.91
2023-02-03T19:55:21.546Z,97788.57
2023-02-03T20:00:43.989Z,97792.81
2023-02-03T20:06:06.277Z,97792.97
2023-02-03T20:11:29.951Z,97791.13
2023-02-03T20:16:52.248Z,97790.42
2023-02-03T20:22:15.120Z,97786.40
2023-02-03T20:27:39.493Z,97780.86
2023-02-03T20:33:07.817Z,97775.56
2023-02-03T20:38:32.214Z,97778.05
2023-02-03T20:43:54.376Z,97773.39
2023-02-03T20:49:19.540Z,97773.85
2023-02-03T20:54:42.076Z,97772.00
2023-02-03T21:00:17.234Z,97775.27
2023-02-03T21:05:46.083Z,97773.10
2023-02-03T21:11:18.620Z,97774.34
2023-02-03T21:16:41.309Z,97773.80
2023-02-03T21:22:17.221Z,97772.93
2023-02-03T21:27:38.978Z,97772.15
2023-02-03T21:33:06.923Z,97768.42
2023-02-03T21:38:35.332Z,97764.34
2023-02-03T21:44:01.073Z,97766.77
2023-02-03T21:49:25.475Z,97763.39
2023-02-03T21:54:50.236Z,97763.74
2023-02-03T22:00:41.270Z,97764.49
2023-02-03T22:06:27.352Z,97767.77
2023-02-03T22:11:49.318Z,97763.41
2023-02-03T22:17:14.294Z,97762.59
2023-02-03T22:22:36.880Z,97759.40
2023-02-03T22:27:58.754Z,97761.60
2023-02-03T22:33:20.721Z,97757.28
2023-02-03T22:38:43.148Z,97761.61
2023-02-03T22:44:05.122Z,97757.77
2023-02-03T22:49:27.110Z,97761.55
2023-02-03T22:54:48.933Z,97766.70
2023-02-03T23:00:12.187Z,97766.46
2023-02-03T23:05:34.300Z,97760.52
2023-02-03T23:10:56.505Z,97757.27
2023-02-03T23:16:18.191Z,97748.02
2023-02-03T23:21:42.804Z,97745.09
2023-02-03T23:27:05.401Z,97744.42
2023-02-03T23:32:27.262Z,97740.48
2023-02-03T23:37:49.163Z,97727.08
2023-02-03T23:43:11.325Z,97729.73
2023-02-03T23:48:36.051Z,97722.27
2023-02-03T23:53:58.259Z,97720.27
2023-02-03T23:59:20.637Z,97720.11
